createdAt,value
2023-05-01T00:01:10.772Z,2.23
2023-05-01T00:03:38.742Z,2.10
2023-05-01T00:06:07.869Z,2.13
2023-05-01T00:08:35.835Z,1.87
2023-05-01T00:11:04.237Z,1.73
2023-05-01T00:13:32.698Z,1.70
2023-05-01T00:16:00.473Z,2.03
2023-05-01T00:18:31.132Z,1.77
2023-05-01T00:20:59.011Z,1.80
2023-05-01T00:23:26.778Z,2.03
2023-05-01T00:25:54.484Z,1.83
2023-05-01T00:28:22.288Z,2.00
2023-05-01T00:30:50.028Z,2.07
2023-05-01T00:33:17.877Z,1.80
2023-05-01T00:35:47.095Z,2.00
2023-05-01T00:38:14.906Z,1.73
2023-05-01T00:40:43.761Z,2.00
2023-05-01T00:43:12.750Z,1.70
2023-05-01T00:45:44.186Z,1.97
2023-05-01T00:48:12.134Z,1.80
2023-05-01T00:50:40.268Z,2.03
2023-05-01T00:53:09.321Z,1.87
2023-05-01T00:55:37.803Z,1.67
2023-05-01T00:58:06.384Z,2.00
2023-05-01T01:00:34.258Z,1.73
2023-05-01T01:03:02.424Z,1.83
2023-05-01T01:05:33.380Z,2.00
2023-05-01T01:08:16.403Z,1.47
2023-05-01T01:10:51.902Z,2.07
2023-05-01T01:13:28.410Z,1.97
2023-05-01T01:16:04.996Z,1.53
2023-05-01T01:18:38.225Z,1.60
2023-05-01T01:21:12.358Z,1.70
2023-05-01T01:24:13.593Z,1.83
2023-05-01T01:27:03.634Z,1.93
2023-05-01T01:29:49.260Z,1.30
2023-05-01T01:32:36.018Z,1.83
2023-05-01T01:35:09.422Z,1.57
2023-05-01T01:37:43.846Z,1.57
2023-05-01T01:40:16.537Z,1.80
2023-05-01T01:42:48.908Z,1.47
2023-05-01T01:45:20.496Z,1.60
2023-05-01T01:47:49.417Z,1.57
2023-05-01T01:50:21.311Z,1.30
2023-05-01T01:52:52.834Z,1.37
2023-05-01T01:55:24.748Z,1.47
2023-05-01T01:57:53.602Z,1.77
2023-05-01T02:00:22.649Z,1.63
2023-05-01T02:02:52.252Z,1.77
2023-05-01T02:05:22.829Z,1.50
2023-05-01T02:07:52.711Z,1.73
2023-05-01T02:10:23.041Z,1.70
2023-05-01T02:12:52.947Z,1.40
2023-05-01T02:15:22.151Z,1.83
2023-05-01T02:17:51.627Z,1.43
2023-05-01T02:20:21.522Z,1.70
2023-05-01T02:22:50.765Z,1.37
2023-05-01T02:25:18.513Z,1.40
2023-05-01T02:27:52.419Z,1.50
2023-05-01T02:30:20.267Z,1.93
2023-05-01T02:32:48.155Z,1.50
2023-05-01T02:35:17.042Z,1.23
2023-05-01T02:37:47.080Z,1.43
2023-05-01T02:40:15.891Z,1.00
2023-05-01T02:42:44.969Z,1.40
2023-05-01T02:45:20.115Z,1.57
2023-05-01T02:47:52.819Z,1.97
2023-05-01T02:50:21.854Z,1.67
2023-05-01T02:52:52.069Z,1.43
2023-05-01T02:55:20.539Z,1.60
2023-05-01T02:57:48.884Z,1.37
2023-05-01T03:00:16.885Z,1.30
2023-05-01T03:02:44.876Z,1.27
2023-05-01T03:05:12.546Z,1.47
2023-05-01T03:07:40.469Z,1.33
2023-05-01T03:10:10.652Z,1.23
2023-05-01T03:12:38.405Z,0.80
2023-05-01T03:15:06.978Z,1.30
2023-05-01T03:17:35.204Z,1.63
2023-05-01T03:20:08.488Z,1.43
2023-05-01T03:22:36.334Z,2.07
2023-05-01T03:25:04.322Z,1.20
2023-05-01T03:27:33.519Z,1.33
2023-05-01T03:30:05.077Z,1.30
2023-05-01T03:32:33.229Z,1.37
2023-05-01T03:35:00.963Z,1.20
2023-05-01T03:37:29.426Z,1.60
2023-05-01T03:39:57.318Z,1.50
2023-05-01T03:42:25.700Z,1.10
2023-05-01T03:44:54.712Z,1.47
2023-05-01T03:47:22.519Z,1.43
2023-05-01T03:49:50.930Z,1.13
2023-05-01T03:52:18.645Z,1.87
2023-05-01T03:54:46.406Z,1.30
2023-05-01T03:57:14.717Z,1.07
2023-05-01T03:59:43.725Z,1.10
2023-05-01T04:02:12.931Z,1.43
2023-05-01T04:04:40.951Z,1.27
2023-05-01T04:07:09.254Z,1.37
2023-05-01T04:09:37.280Z,0.90
2023-05-01T04:12:05.675Z,1.90
2023-05-01T04:14:36.400Z,1.40
2023-05-01T04:17:04.484Z,1.37
2023-05-01T04:19:34.776Z,1.70
2023-05-01T04:22:02.684Z,1.30
2023-05-01T04:24:30.450Z,1.37
2023-05-01T04:26:58.524Z,1.90
2023-05-01T04:29:26.524Z,1.20
2023-05-01T04:31:54.467Z,1.37
2023-05-01T04:34:22.223Z,1.20
2023-05-01T04:36:51.862Z,1.27
2023-05-01T04:39:19.661Z,1.80
2023-05-01T04:41:47.451Z,1.60
2023-05-01T04:44:15.183Z,1.60
2023-05-01T04:46:43.033Z,1.70
2023-05-01T04:49:10.757Z,1.37
2023-05-01T04:51:38.467Z,1.70
2023-05-01T04:54:07.528Z,1.30
2023-05-01T04:56:35.273Z,1.73
2023-05-01T04:59:03.003Z,1.23
2023-05-01T05:01:30.816Z,1.30
2023-05-01T05:03:58.789Z,1.87
2023-05-01T05:06:26.854Z,1.47
2023-05-01T05:08:55.729Z,1.33
2023-05-01T05:11:24.976Z,1.87
2023-05-01T05:13:52.761Z,1.30
2023-05-01T05:16:20.617Z,1.40
2023-05-01T05:18:48.365Z,1.57
2023-05-01T05:21:16.082Z,1.50
2023-05-01T05:23:44.230Z,1.77
2023-05-01T05:26:11.948Z,1.77
2023-05-01T05:28:41.698Z,1.27
2023-05-01T05:31:09.775Z,1.43
2023-05-01T05:33:37.573Z,1.67
2023-05-01T05:36:05.779Z,1.60
2023-05-01T05:38:33.519Z,1.57
2023-05-01T05:41:01.817Z,1.50
2023-05-01T05:43:29.842Z,1.27
2023-05-01T05:46:02.288Z,1.40
2023-05-01T05:48:30.279Z,2.03
2023-05-01T05:50:58.031Z,1.50
2023-05-01T05:53:26.640Z,1.20
2023-05-01T05:55:54.554Z,1.90
2023-05-01T05:58:23.314Z,1.47
2023-05-01T06:00:53.152Z,1.83
2023-05-01T06:03:22.723Z,1.60
2023-05-01T06:05:51.086Z,1.30
2023-05-01T06:08:18.818Z,1.30
2023-05-01T06:10:46.646Z,1.30
2023-05-01T06:13:15.048Z,1.37
2023-05-01T06:15:43.777Z,1.47
2023-05-01T06:18:11.942Z,1.17
2023-05-01T06:20:41.149Z,1.03
2023-05-01T06:23:09.450Z,0.97
2023-05-01T06:25:37.629Z,1.50
2023-05-01T06:28:05.683Z,1.40
2023-05-01T06:30:33.397Z,1.40
2023-05-01T06:33:01.337Z,1.20
2023-05-01T06:35:29.244Z,1.07
2023-05-01T06:37:58.328Z,1.43
2023-05-01T06:40:26.104Z,1.40
2023-05-01T06:42:53.874Z,1.17
2023-05-01T06:45:21.931Z,1.03
2023-05-01T06:47:49.806Z,1.60
2023-05-01T06:50:17.715Z,1.23
2023-05-01T06:52:45.441Z,1.57
2023-05-01T06:55:14.544Z,1.30
2023-05-01T06:57:42.776Z,1.13
2023-05-01T07:00:11.932Z,1.20
2023-05-01T07:02:40.681Z,1.30
2023-05-01T07:05:08.971Z,1.43
2023-05-01T07:07:38.916Z,1.07
2023-05-01T07:10:10.466Z,1.10
2023-05-01T07:12:39.529Z,1.30
2023-05-01T07:15:08.910Z,0.77
2023-05-01T07:17:36.774Z,1.30
2023-05-01T07:20:05.168Z,1.53
2023-05-01T07:22:32.884Z,1.03
2023-05-01T07:25:03.112Z,1.30
2023-05-01T07:27:30.898Z,1.73
2023-05-01T07:30:01.667Z,1.67
2023-05-01T07:32:29.448Z,1.37
2023-05-01T07:34:57.457Z,0.90
2023-05-01T07:37:26.944Z,1.07
2023-05-01T07:39:55.179Z,1.53
2023-05-01T07:42:23.326Z,1.30
2023-05-01T07:44:51.567Z,1.27
2023-05-01T07:47:20.762Z,1.10
2023-05-01T07:49:48.484Z,1.77
2023-05-01T07:52:16.424Z,1.40
2023-05-01T07:54:44.116Z,1.20
2023-05-01T07:57:11.829Z,1.50
2023-05-01T07:59:39.531Z,1.63
2023-05-01T08:02:07.563Z,1.30
2023-05-01T08:04:36.988Z,1.40
2023-05-01T08:07:04.815Z,1.10
2023-05-01T08:09:32.506Z,2.27
2023-05-01T08:12:00.497Z,1.30
2023-05-01T08:14:28.220Z,1.43
2023-05-01T08:16:56.237Z,1.10
2023-05-01T08:19:25.152Z,1.40
2023-05-01T08:21:54.544Z,1.33
2023-05-01T08:24:22.279Z,1.23
2023-05-01T08:26:50.015Z,1.20
2023-05-01T08:29:17.752Z,1.07
2023-05-01T08:31:46.616Z,1.50
2023-05-01T08:34:14.414Z,1.20
2023-05-01T08:36:42.292Z,1.37
2023-05-01T08:39:12.033Z,1.20
2023-05-01T08:41:41.067Z,1.20
2023-05-01T08:44:10.540Z,1.17
2023-05-01T08:46:47.671Z,1.30
2023-05-01T08:49:18.123Z,1.40
2023-05-01T08:51:47.618Z,1.27
2023-05-01T08:54:18.538Z,1.30
2023-05-01T08:56:48.540Z,1.10
2023-05-01T08:59:17.565Z,1.30
2023-05-01T09:01:46.001Z,1.30
2023-05-01T09:04:15.295Z,1.20
2023-05-01T09:06:44.870Z,1.30
2023-05-01T09:09:12.930Z,0.90
2023-05-01T09:11:44.719Z,1.10
2023-05-01T09:14:12.741Z,1.20
2023-05-01T09:16:40.559Z,1.17
2023-05-01T09:19:08.384Z,1.00
2023-05-01T09:21:36.159Z,1.20
2023-05-01T09:24:04.004Z,1.27
2023-05-01T09:26:31.765Z,1.20
2023-05-01T09:29:01.725Z,1.40
2023-05-01T09:31:32.710Z,1.00
2023-05-01T09:34:02.708Z,0.93
2023-05-01T09:36:32.379Z,1.47
2023-05-01T09:39:01.367Z,1.20
2023-05-01T09:41:31.683Z,1.37
2023-05-01T09:44:01.425Z,1.00
2023-05-01T09:46:29.551Z,1.17
2023-05-01T09:48:59.339Z,1.13
2023-05-01T09:51:29.142Z,0.90
2023-05-01T09:53:58.202Z,1.00
2023-05-01T09:56:27.549Z,1.07
2023-05-01T09:58:58.687Z,0.80
2023-05-01T10:01:41.695Z,1.30
2023-05-01T10:04:10.815Z,1.23
2023-05-01T10:06:39.661Z,1.10
2023-05-01T10:09:16.427Z,1.23
2023-05-01T10:11:49.766Z,1.20
2023-05-01T10:14:17.858Z,1.03
2023-05-01T10:16:47.598Z,1.02
2023-05-01T10:19:18.060Z,1.20
2023-05-01T10:21:45.913Z,1.00
2023-05-01T10:24:15.180Z,0.95
2023-05-01T10:26:43.490Z,1.10
2023-05-01T10:29:12.040Z,1.40
2023-05-01T10:31:42.219Z,1.00
2023-05-01T10:34:12.947Z,1.08
2023-05-01T10:36:44.526Z,0.80
2023-05-01T10:39:33.850Z,1.10
2023-05-01T10:42:05.777Z,1.17
2023-05-01T10:44:35.607Z,1.02
2023-05-01T10:47:41.700Z,1.35
2023-05-01T10:50:12.461Z,0.93
2023-05-01T10:53:19.437Z,0.90
2023-05-01T10:55:49.202Z,1.10
2023-05-01T10:58:55.901Z,0.93
2023-05-01T11:01:31.771Z,0.98
2023-05-01T11:04:00.880Z,0.70
2023-05-01T11:06:30.162Z,0.77
2023-05-01T11:08:58.597Z,1.20
2023-05-01T11:11:54.093Z,0.90
2023-05-01T11:14:21.850Z,1.13
2023-05-01T11:16:50.370Z,1.00
2023-05-01T11:19:50.713Z,1.27
2023-05-01T11:22:20.394Z,1.33
2023-05-01T11:24:48.628Z,1.30
2023-05-01T11:27:18.143Z,1.02
2023-05-01T11:29:49.510Z,0.77
2023-05-01T11:32:20.668Z,1.00
2023-05-01T11:34:51.107Z,1.00
2023-05-01T11:37:20.256Z,0.90
2023-05-01T11:39:53.456Z,0.98
2023-05-01T11:42:23.999Z,1.17
2023-05-01T11:45:08.119Z,1.00
2023-05-01T11:47:36.241Z,0.90
2023-05-01T11:50:04.138Z,1.05
2023-05-01T11:52:43.242Z,1.13
2023-05-01T11:55:11.511Z,0.82
2023-05-01T11:57:49.384Z,1.08
2023-05-01T12:00:27.156Z,1.02
2023-05-01T12:02:59.926Z,0.90
2023-05-01T12:05:30.293Z,0.82
2023-05-01T12:08:13.808Z,1.20
2023-05-01T12:10:44.554Z,1.20
2023-05-01T12:13:14.744Z,0.90
2023-05-01T12:15:45.259Z,1.00
2023-05-01T12:18:14.054Z,1.08
2023-05-01T12:20:43.684Z,1.05
2023-05-01T12:23:15.341Z,1.08
2023-05-01T12:25:44.959Z,0.75
2023-05-01T12:28:14.968Z,1.20
2023-05-01T12:30:44.881Z,1.27
2023-05-01T12:33:14.268Z,1.20
2023-05-01T12:35:45.395Z,0.90
2023-05-01T12:38:16.973Z,0.95
2023-05-01T12:40:53.612Z,0.95
2023-05-01T12:43:22.437Z,0.90
2023-05-01T12:45:54.286Z,1.05
2023-05-01T12:48:22.369Z,0.88
2023-05-01T12:50:54.857Z,0.75
2023-05-01T12:53:25.769Z,0.90
2023-05-01T12:55:55.277Z,0.90
2023-05-01T12:58:23.377Z,0.75
2023-05-01T13:00:53.024Z,1.00
2023-05-01T13:03:24.855Z,0.98
2023-05-01T13:05:57.848Z,1.00
2023-05-01T13:08:30.064Z,0.80
2023-05-01T13:11:00.018Z,0.60
2023-05-01T13:13:29.480Z,1.00
2023-05-01T13:16:09.081Z,0.90
2023-05-01T13:18:45.247Z,1.17
2023-05-01T13:21:15.708Z,0.82
2023-05-01T13:23:53.800Z,1.00
2023-05-01T13:26:27.228Z,0.90
2023-05-01T13:28:55.488Z,1.08
2023-05-01T13:31:23.266Z,1.00
2023-05-01T13:33:53.382Z,1.10
2023-05-01T13:36:26.594Z,1.15
2023-05-01T13:38:57.509Z,0.90
2023-05-01T13:41:27.270Z,0.98
2023-05-01T13:43:56.742Z,1.20
2023-05-01T13:46:26.847Z,1.20
2023-05-01T13:48:54.851Z,1.30
2023-05-01T13:51:24.035Z,1.00
2023-05-01T13:53:53.059Z,1.13
2023-05-01T13:56:22.674Z,1.20
2023-05-01T13:58:51.083Z,1.10
2023-05-01T14:01:21.420Z,1.13
2023-05-01T14:03:50.228Z,1.10
2023-05-01T14:06:19.641Z,1.20
2023-05-01T14:08:48.942Z,1.23
2023-05-01T14:11:16.902Z,0.93
2023-05-01T14:13:47.485Z,1.20
2023-05-01T14:16:24.126Z,0.80
2023-05-01T14:18:54.654Z,1.10
2023-05-01T14:21:24.174Z,1.10
2023-05-01T14:23:53.728Z,0.70
2023-05-01T14:26:23.804Z,0.90
2023-05-01T14:28:53.205Z,1.00
2023-05-01T14:31:27.045Z,0.75
2023-05-01T14:33:57.798Z,0.93
2023-05-01T14:36:26.741Z,1.08
2023-05-01T14:38:57.296Z,1.10
2023-05-01T14:41:25.580Z,0.82
2023-05-01T14:43:54.684Z,0.98
2023-05-01T14:46:30.273Z,0.80
2023-05-01T14:48:58.592Z,1.48
2023-05-01T14:51:27.203Z,1.10
2023-05-01T14:53:55.204Z,1.05
2023-05-01T14:56:23.044Z,1.20
2023-05-01T14:58:51.297Z,0.93
2023-05-01T15:01:20.514Z,0.90
2023-05-01T15:03:48.396Z,0.90
2023-05-01T15:06:17.171Z,1.08
2023-05-01T15:08:45.489Z,1.15
2023-05-01T15:11:14.320Z,1.13
2023-05-01T15:13:42.688Z,1.15
2023-05-01T15:16:10.934Z,1.20
2023-05-01T15:18:40.106Z,1.77
2023-05-01T15:21:08.179Z,1.20
2023-05-01T15:23:36.988Z,1.10
2023-05-01T15:26:04.932Z,1.35
2023-05-01T15:28:32.890Z,1.40
2023-05-01T15:31:00.723Z,1.45
2023-05-01T15:33:28.495Z,0.85
2023-05-01T15:35:57.629Z,1.27
2023-05-01T15:38:26.069Z,1.10
2023-05-01T15:40:53.932Z,1.30
2023-05-01T15:43:23.398Z,1.25
2023-05-01T15:45:53.106Z,1.50
2023-05-01T15:48:20.896Z,1.45
2023-05-01T15:50:49.270Z,1.00
2023-05-01T15:53:18.624Z,2.15
2023-05-01T15:55:46.616Z,1.30
2023-05-01T15:58:15.865Z,1.35
2023-05-01T16:00:44.455Z,1.23
2023-05-01T16:03:12.831Z,1.10
2023-05-01T16:05:40.854Z,0.80
2023-05-01T16:08:08.573Z,1.63
2023-05-01T16:10:38.056Z,1.00
2023-05-01T16:13:06.750Z,0.82
2023-05-01T16:15:34.830Z,1.00
2023-05-01T16:18:05.224Z,1.52
2023-05-01T16:20:36.585Z,1.10
2023-05-01T16:23:04.326Z,1.15
2023-05-01T16:25:32.013Z,1.27
2023-05-01T16:28:01.109Z,1.80
2023-05-01T16:30:28.832Z,1.23
2023-05-01T16:32:56.579Z,1.40
2023-05-01T16:35:28.938Z,1.20
2023-05-01T16:37:57.134Z,1.30
2023-05-01T16:40:24.976Z,1.40
2023-05-01T16:42:54.370Z,1.50
2023-05-01T16:45:23.947Z,1.45
2023-05-01T16:47:52.740Z,1.45
2023-05-01T16:50:25.355Z,1.25
2023-05-01T16:52:54.876Z,1.40
2023-05-01T16:55:22.946Z,1.50
2023-05-01T16:57:50.786Z,1.70
2023-05-01T17:00:19.584Z,1.50
2023-05-01T17:02:51.879Z,1.85
2023-05-01T17:05:20.378Z,1.63
2023-05-01T17:07:52.144Z,1.17
2023-05-01T17:10:19.905Z,2.22
2023-05-01T17:12:47.862Z,1.40
2023-05-01T17:15:15.920Z,1.45
2023-05-01T17:17:44.940Z,1.38
2023-05-01T17:20:14.766Z,1.55
2023-05-01T17:22:43.179Z,1.42
2023-05-01T17:25:11.680Z,1.30
2023-05-01T17:27:39.748Z,1.38
2023-05-01T17:30:08.888Z,1.00
2023-05-01T17:32:37.730Z,1.23
2023-05-01T17:35:07.340Z,1.20
2023-05-01T17:37:40.709Z,1.52
2023-05-01T17:40:12.242Z,1.40
2023-05-01T17:42:40.212Z,1.38
2023-05-01T17:45:10.600Z,1.33
2023-05-01T17:47:41.637Z,1.17
2023-05-01T17:50:12.027Z,1.20
2023-05-01T17:52:41.961Z,1.30
2023-05-01T17:55:11.037Z,1.67
2023-05-01T17:57:40.596Z,1.13
2023-05-01T18:00:11.058Z,1.10
2023-05-01T18:02:39.163Z,1.40
2023-05-01T18:05:07.778Z,1.33
2023-05-01T18:07:35.529Z,1.02
2023-05-01T18:10:07.133Z,1.00
2023-05-01T18:12:35.489Z,0.90
2023-05-01T18:15:03.759Z,1.10
2023-05-01T18:17:32.041Z,1.55
2023-05-01T18:20:00.432Z,1.50
2023-05-01T18:22:29.046Z,1.40
2023-05-01T18:24:57.324Z,1.20
2023-05-01T18:27:26.661Z,1.00
2023-05-01T18:29:55.540Z,1.00
2023-05-01T18:32:32.906Z,0.93
2023-05-01T18:35:08.338Z,0.90
2023-05-01T18:37:36.074Z,0.77
2023-05-01T18:40:05.371Z,0.82
2023-05-01T18:42:35.587Z,1.40
2023-05-01T18:45:04.972Z,1.08
2023-05-01T18:47:33.453Z,0.90
2023-05-01T18:50:01.849Z,1.10
2023-05-01T18:52:30.986Z,1.30
2023-05-01T18:55:06.384Z,0.80
2023-05-01T18:57:36.026Z,1.77
2023-05-01T19:00:07.500Z,1.00
2023-05-01T19:02:35.551Z,1.10
2023-05-01T19:05:04.037Z,1.10
2023-05-01T19:07:31.991Z,1.00
2023-05-01T19:10:02.063Z,1.20
2023-05-01T19:12:31.884Z,1.10
2023-05-01T19:15:01.545Z,0.97
2023-05-01T19:17:30.068Z,1.50
2023-05-01T19:20:01.517Z,1.50
2023-05-01T19:22:29.809Z,1.30
2023-05-01T19:24:58.270Z,1.23
2023-05-01T19:27:28.634Z,1.37
2023-05-01T19:29:59.187Z,0.80
2023-05-01T19:32:31.444Z,1.40
2023-05-01T19:34:59.663Z,1.50
2023-05-01T19:37:28.099Z,1.20
2023-05-01T19:39:57.465Z,1.20
2023-05-01T19:42:25.527Z,1.20
2023-05-01T19:44:53.404Z,1.20
2023-05-01T19:47:21.380Z,1.07
2023-05-01T19:49:50.958Z,1.20
2023-05-01T19:52:19.754Z,1.43
2023-05-01T19:54:49.617Z,1.00
2023-05-01T19:57:17.410Z,1.57
2023-05-01T19:59:45.309Z,1.00
2023-05-01T20:02:14.861Z,1.00
2023-05-01T20:04:42.634Z,1.77
2023-05-01T20:07:14.718Z,1.30
2023-05-01T20:09:42.670Z,1.30
2023-05-01T20:12:10.636Z,2.07
2023-05-01T20:14:38.389Z,1.80
2023-05-01T20:17:07.167Z,2.07
2023-05-01T20:19:35.598Z,1.90
2023-05-01T20:22:04.127Z,2.63
2023-05-01T20:24:33.319Z,2.73
2023-05-01T20:27:01.252Z,1.87
2023-05-01T20:29:29.000Z,1.90
2023-05-01T20:31:56.721Z,1.60
2023-05-01T20:34:25.086Z,1.80
2023-05-01T20:36:53.030Z,1.90
2023-05-01T20:39:20.838Z,2.00
2023-05-01T20:41:50.032Z,1.70
2023-05-01T20:44:17.787Z,2.03
2023-05-01T20:46:46.731Z,2.53
2023-05-01T20:49:16.027Z,1.80
2023-05-01T20:51:43.976Z,1.33
2023-05-01T20:54:11.704Z,1.40
2023-05-01T20:56:39.681Z,1.70
2023-05-01T20:59:08.777Z,1.30
2023-05-01T21:01:36.641Z,1.33
2023-05-01T21:04:06.227Z,1.13
2023-05-01T21:06:34.431Z,1.20
2023-05-01T21:09:02.341Z,1.57
2023-05-01T21:11:30.109Z,1.20
2023-05-01T21:13:59.035Z,1.13
2023-05-01T21:16:28.825Z,1.40
2023-05-01T21:18:56.644Z,1.43
2023-05-01T21:21:25.072Z,1.37
2023-05-01T21:23:52.867Z,1.40
2023-05-01T21:26:21.277Z,1.30
2023-05-01T21:28:49.401Z,1.03
2023-05-01T21:31:17.361Z,1.40
2023-05-01T21:33:46.535Z,1.13
2023-05-01T21:36:17.976Z,1.23
2023-05-01T21:38:46.219Z,1.17
2023-05-01T21:41:15.153Z,1.30
2023-05-01T21:43:43.372Z,1.20
2023-05-01T21:46:15.410Z,1.93
2023-05-01T21:48:43.593Z,1.50
2023-05-01T21:51:12.876Z,1.10
2023-05-01T21:53:42.792Z,1.47
2023-05-01T21:56:10.977Z,1.50
2023-05-01T21:58:40.113Z,1.50
2023-05-01T22:01:09.342Z,1.30
2023-05-01T22:03:41.520Z,1.00
2023-05-01T22:06:09.651Z,1.20
2023-05-01T22:08:38.708Z,1.10
2023-05-01T22:11:08.307Z,1.23
2023-05-01T22:13:36.496Z,1.63
2023-05-01T22:16:04.632Z,1.03
2023-05-01T22:18:32.552Z,1.73
2023-05-01T22:21:02.379Z,1.33
2023-05-01T22:23:30.162Z,1.57
2023-05-01T22:26:00.593Z,1.10
2023-05-01T22:28:28.902Z,1.33
2023-05-01T22:30:57.010Z,1.13
2023-05-01T22:33:24.771Z,1.27
2023-05-01T22:35:52.486Z,1.70
2023-05-01T22:38:20.310Z,1.20
2023-05-01T22:40:47.985Z,1.33
2023-05-01T22:43:16.977Z,1.63
2023-05-01T22:45:44.741Z,1.20
2023-05-01T22:48:12.534Z,1.63
2023-05-01T22:50:42.709Z,1.30
2023-05-01T22:53:10.702Z,1.60
2023-05-01T22:55:38.597Z,1.80
2023-05-01T22:58:06.488Z,1.30
2023-05-01T23:00:35.671Z,1.07
2023-05-01T23:03:04.148Z,2.13
2023-05-01T23:05:31.976Z,2.00
2023-05-01T23:08:00.134Z,1.83
2023-05-01T23:10:28.807Z,2.40
2023-05-01T23:12:56.651Z,2.97
2023-05-01T23:15:26.105Z,2.00
2023-05-01T23:17:56.903Z,1.70
2023-05-01T23:20:25.397Z,2.40
2023-05-01T23:22:53.276Z,2.10
2023-05-01T23:25:25.164Z,2.80
2023-05-01T23:27:56.428Z,2.47
2023-05-01T23:30:24.238Z,2.00
2023-05-01T23:32:52.148Z,2.47
2023-05-01T23:35:24.229Z,2.73
2023-05-01T23:37:53.516Z,3.40
2023-05-01T23:40:21.349Z,2.23
2023-05-01T23:42:49.751Z,2.77
2023-05-01T23:45:17.679Z,2.70
2023-05-01T23:47:45.530Z,3.00
2023-05-01T23:50:13.431Z,2.57
2023-05-01T23:52:42.587Z,2.93
2023-05-01T23:55:10.672Z,2.83
2023-05-01T23:57:38.545Z,2.70
